Ostrander, MN (55961)

7:53 AM CST on February 23, 2017 (GMT -0600)
Spring Valley | | Change Station
Active Advisory: Winter Storm Watch

Elev 1275 ft 43.66 °N, 92.39 °W | Updated 14 seconds ago

Overcast
Overcast
33.4 °F
Feels Like 28 °F
N
5.8
Wind Variable Wind from NE
Gusts 7.4 mph

Today
High -- | Low -- °F
--% Chance of Precip.
Yesterday
High -- | Low -- °F
Precip. -- in
Pressure 29.85 in
Visibility 10.0 miles
Clouds Overcast 1100 ft
Windchill 28 °F
Dew Point 33 °F
Humidity 99%
Rainfall 0.00 in
Snow Depth Not available.
6:55 AM 5:51 PM
Waning Crescent, 10% visible
METAR KFKA 231333Z AUTO 01006KT 10SM OVC011 01/00 A2985 RMK AO2 T00141002
Pressure 29.85 in
Visibility 10.0 miles
Clouds Overcast 1100 ft
Windchill 28 °F
Dew Point 33 °F
Humidity 99%
Rainfall 0.00 in
Snow Depth Not available.
6:55 AM 5:51 PM
Waning Crescent, 10% visible
METAR KFKA 231333Z AUTO 01006KT 10SM OVC011 01/00 A2985 RMK AO2 T00141002

Get Your Daily Forecast Email!

Thanks for signing up!

Be on the lookout for a verification email in your inbox.

You'll start receiving the daily forecast at 8 AM.

×

10-Day Weather Forecast

Almanac

Astronomy

Feb. 23, 2017 Rise Set
Actual Time
Civil Twilight
Nautical Twilight
Astronomical Twilight
Moon
Length of Visible Light
Length of Day
Tomorrow will be .
, % of the Moon is Illuminated

Today's Extremes

State Highs State Lows

Community

WunderPhotos

Upload Photos

1,962,540 photos uploaded!

WunderBlog® & News

Nearby

Air Quality

  Air Quality AQ Index Pollutant
Not available.

Snow Depth

Station Depth Elevation

Earthquake Activity

City Distance Mag. Time & Date
Minimum magnitude displayed is 2.5.

Coastal Water Temperatures

Place Temperature

Stations

Nearby Weather Stations

Station Location Temp. Windchill Dew Point Humidity Wind Precip. Elev Updated Type
                   

Watches & Warnings

Winter Storm Watch
Issued: 3:31 AM CST Feb. 23, 2017 – National Weather Service

... Winter Storm Watch in effect from late tonight through late
Friday night...

The National Weather Service in La Crosse has issued a Winter
Storm Watch... which is in effect from late tonight through late
Friday night.

* Wintry mix overnight... becoming all snow by Friday night.

* Total snow accumulations of 3 to 10 inches. Light icing possible.

* Significant reductions in visibility are likely.

* Blowing and drifting snow Friday through Friday night in open
and unsheltered areas

* travel will become difficult to potentially impossible by Friday
night. Expect slippery travel for the morning commute on Friday.

Precautionary/preparedness actions...

A Winter Storm Watch means there is potential for significant
snow... sleet or ice accumulations that may impact travel.
Continue to monitor the latest forecasts.



Rieck